createdAt,value
2016-01-24T00:00:38.116Z,0.62
2016-01-24T00:01:38.134Z,0.73
2016-01-24T00:02:38.105Z,0.66
2016-01-24T00:03:38.114Z,0.58
2016-01-24T00:04:38.103Z,0.69
2016-01-24T00:05:38.171Z,0.58
2016-01-24T00:16:30.065Z,0.58
2016-01-24T00:17:20.271Z,0.6
2016-01-24T00:18:20.244Z,0.63
2016-01-24T00:19:20.261Z,0.65
2016-01-24T00:20:20.264Z,0.55
2016-01-24T00:21:20.270Z,0.55
2016-01-24T00:22:20.322Z,0.5
2016-01-24T00:23:20.216Z,0.52
2016-01-24T00:24:20.219Z,0.52
2016-01-24T00:25:20.236Z,0.58
2016-01-24T00:26:20.208Z,0.49
2016-01-24T00:27:20.197Z,0.58
2016-01-24T00:28:20.184Z,0.49
2016-01-24T00:29:20.204Z,0.52
2016-01-24T00:30:20.241Z,0.47
2016-01-24T00:31:20.258Z,0.47
2016-01-24T00:32:20.183Z,0.59
2016-01-24T00:33:20.187Z,0.55
2016-01-24T00:34:20.175Z,0.59
2016-01-24T00:35:20.159Z,0.6
2016-01-24T00:36:20.146Z,0.52
2016-01-24T00:37:20.183Z,0.59
2016-01-24T00:38:20.153Z,0.62
2016-01-24T00:39:20.131Z,0.52
2016-01-24T00:40:20.337Z,0.59
2016-01-24T00:41:20.122Z,0.56
2016-01-24T00:42:20.141Z,0.6
2016-01-24T00:43:20.114Z,0.56
2016-01-24T00:44:20.132Z,0.6
2016-01-24T00:45:20.121Z,0.63
2016-01-24T00:46:20.138Z,0.6
2016-01-24T00:47:20.095Z,0.55
2016-01-24T00:48:20.101Z,0.58
2016-01-24T00:49:20.088Z,0.58
2016-01-24T00:50:20.122Z,0.58
2016-01-24T00:51:20.080Z,0.55
2016-01-24T00:52:20.084Z,0.6
2016-01-24T00:53:20.071Z,0.58
2016-01-24T00:54:20.073Z,0.55
2016-01-24T00:55:20.076Z,0.58
2016-01-24T00:56:20.049Z,0.52
2016-01-24T00:57:20.083Z,0.47
2016-01-24T00:58:20.039Z,0.47
2016-01-24T00:59:20.042Z,0.49
2016-01-24T01:00:20.047Z,0.5
2016-01-24T01:01:20.036Z,0.46
2016-01-24T01:02:20.007Z,0.55
2016-01-24T01:03:20.010Z,0.49
2016-01-24T01:04:20.012Z,0.5
2016-01-24T01:05:20.002Z,0.46
2016-01-24T01:06:20.019Z,0.47
2016-01-24T01:07:20.009Z,0.46
2016-01-24T01:08:20.058Z,0.44
2016-01-24T01:09:20.046Z,0.4
2016-01-24T01:10:20.018Z,0.44
2016-01-24T01:11:19.993Z,0.46
2016-01-24T01:12:19.979Z,0.37
2016-01-24T01:13:19.966Z,0.4
2016-01-24T01:14:19.953Z,0.29
2016-01-24T01:15:19.973Z,0.31
2016-01-24T01:16:19.937Z,0.32
2016-01-24T01:17:19.911Z,0.22
2016-01-24T01:18:20.276Z,0.22
2016-01-24T01:19:19.891Z,0.22
2016-01-24T01:20:19.854Z,0.19
2016-01-24T01:21:19.895Z,0.22
2016-01-24T01:22:19.847Z,0.22
2016-01-24T01:23:19.832Z,0.12
2016-01-24T01:24:19.830Z,0.18
2016-01-24T01:25:19.812Z,0.16
2016-01-24T01:26:19.813Z,0.21
2016-01-24T01:27:19.799Z,0.19
2016-01-24T01:28:19.801Z,0.21
2016-01-24T01:29:19.801Z,0.15
2016-01-24T01:30:19.775Z,0.15
2016-01-24T01:31:19.777Z,0.12
2016-01-24T01:32:19.764Z,0.11
2016-01-24T01:33:19.750Z,0.15
2016-01-24T01:34:19.757Z,0.15
2016-01-24T01:35:19.758Z,0.15
2016-01-24T01:36:19.745Z,0.15
2016-01-24T01:37:19.733Z,0.11
2016-01-24T01:38:19.720Z,0.07
2016-01-24T01:39:19.724Z,0.12
2016-01-24T01:40:19.570Z,0.1
2016-01-24T01:41:19.807Z,0.16
2016-01-24T01:42:19.717Z,0.08
2016-01-24T01:43:19.719Z,0.12
2016-01-24T01:44:19.707Z,0.15
2016-01-24T01:45:19.695Z,0.08
2016-01-24T01:46:19.684Z,0.08
2016-01-24T01:47:19.718Z,0.08
2016-01-24T01:48:19.673Z,0.08
2016-01-24T01:49:19.660Z,0.07
2016-01-24T01:50:19.684Z,0.1
2016-01-24T01:51:19.655Z,0.05
2016-01-24T01:52:19.813Z,0
2016-01-24T01:53:19.647Z,0.08
2016-01-24T01:54:19.681Z,0.15
2016-01-24T01:55:19.684Z,0.08
2016-01-24T01:56:19.640Z,-0.07
2016-01-24T01:57:19.631Z,0.11
2016-01-24T01:58:19.602Z,0
2016-01-24T01:59:19.917Z,0.1
2016-01-24T02:00:19.686Z,0.12
2016-01-24T02:01:19.611Z,0.08
2016-01-24T02:02:19.600Z,0
2016-01-24T02:03:19.586Z,0.08
2016-01-24T02:04:19.589Z,-0.03
2016-01-24T02:05:19.577Z,0
2016-01-24T02:06:19.569Z,-0.03
2016-01-24T02:07:19.587Z,-0.07
2016-01-24T02:08:19.574Z,-0.06
2016-01-24T02:09:19.565Z,0
2016-01-24T02:10:19.567Z,0.01
2016-01-24T02:11:19.543Z,0.1
2016-01-24T02:12:19.545Z,0.15
2016-01-24T02:13:19.534Z,0.08
2016-01-24T02:14:19.537Z,0.05
2016-01-24T02:15:19.540Z,0.1
2016-01-24T02:16:19.528Z,0
2016-01-24T02:17:19.530Z,0
2016-01-24T02:18:19.518Z,-0.03
2016-01-24T02:19:19.505Z,0.15
2016-01-24T02:20:19.511Z,-0.07
2016-01-24T02:21:19.547Z,-0.07
2016-01-24T02:22:19.488Z,0.04
2016-01-24T02:23:19.493Z,0
2016-01-24T02:24:19.480Z,-0.07
2016-01-24T02:25:19.484Z,-0.02
2016-01-24T02:26:19.501Z,-0.06
2016-01-24T02:27:19.473Z,-0.02
2016-01-24T02:28:19.463Z,-0.03
2016-01-24T02:29:19.451Z,-0.07
2016-01-24T02:30:19.437Z,-0.02
2016-01-24T02:31:19.455Z,-0.13
2016-01-24T02:32:19.443Z,-0.1
2016-01-24T02:33:19.415Z,-0.2
2016-01-24T02:34:19.419Z,-0.2
2016-01-24T02:35:19.468Z,-0.13
2016-01-24T02:36:19.408Z,-0.17
2016-01-24T02:37:19.412Z,-0.15
2016-01-24T02:38:19.415Z,-0.11
2016-01-24T02:39:19.387Z,-0.15
2016-01-24T02:40:19.562Z,-0.17
2016-01-24T02:41:19.377Z,-0.21
2016-01-24T02:42:19.412Z,-0.08
2016-01-24T02:43:19.352Z,-0.13
2016-01-24T02:44:19.355Z,-0.13
2016-01-24T02:45:19.374Z,-0.18
2016-01-24T02:46:19.346Z,-0.14
2016-01-24T02:47:19.333Z,-0.17
2016-01-24T02:48:19.323Z,-0.11
2016-01-24T02:49:19.326Z,-0.18
2016-01-24T02:50:19.346Z,-0.13
2016-01-24T02:51:19.318Z,-0.14
2016-01-24T02:52:19.321Z,-0.2
2016-01-24T02:53:19.305Z,-0.25
2016-01-24T02:54:19.291Z,-0.28
2016-01-24T02:55:19.279Z,-0.25
2016-01-24T02:56:19.345Z,-0.28
2016-01-24T02:57:19.269Z,-0.28
2016-01-24T02:58:19.272Z,-0.15
2016-01-24T02:59:19.258Z,-0.2
2016-01-24T03:00:19.279Z,-0.15
2016-01-24T03:01:19.251Z,-0.13
2016-01-24T03:02:19.238Z,-0.13
2016-01-24T03:03:19.241Z,-0.13
2016-01-24T03:04:19.229Z,-0.1
2016-01-24T03:05:19.233Z,-0.03
2016-01-24T03:06:19.220Z,-0.07
2016-01-24T03:07:19.225Z,-0.17
2016-01-24T03:08:19.211Z,-0.13
2016-01-24T03:09:19.230Z,-0.08
2016-01-24T03:10:19.235Z,-0.13
2016-01-24T03:11:19.193Z,-0.1
2016-01-24T03:12:19.179Z,-0.14
2016-01-24T03:13:19.182Z,-0.15
2016-01-24T03:14:19.171Z,-0.15
2016-01-24T03:15:19.237Z,-0.23
2016-01-24T03:16:19.177Z,-0.28
2016-01-24T03:17:19.148Z,-0.15
2016-01-24T03:18:19.182Z,-0.17
2016-01-24T03:19:19.187Z,-0.23
2016-01-24T03:20:19.189Z,-0.29
2016-01-24T03:21:19.146Z,-0.26
2016-01-24T03:22:19.117Z,-0.25
2016-01-24T03:23:19.120Z,-0.23
2016-01-24T03:24:19.123Z,-0.18
2016-01-24T03:25:19.163Z,-0.34
2016-01-24T03:26:19.120Z,-0.31
2016-01-24T03:27:19.106Z,-0.34
2016-01-24T03:28:19.109Z,-0.31
2016-01-24T03:29:19.081Z,-0.34
2016-01-24T03:30:19.115Z,-0.34
2016-01-24T03:31:19.071Z,-0.32
2016-01-24T03:32:18.918Z,-0.36
2016-01-24T03:33:19.063Z,-0.38
2016-01-24T03:34:19.067Z,-0.49
2016-01-24T03:35:19.133Z,-0.38
2016-01-24T03:36:19.041Z,-0.38
2016-01-24T03:37:19.108Z,-0.44
2016-01-24T03:38:19.033Z,-0.52
2016-01-24T03:39:19.036Z,-0.53
2016-01-24T03:40:19.038Z,-0.53
2016-01-24T03:41:19.012Z,-0.56
2016-01-24T03:42:19.124Z,-0.52
2016-01-24T03:43:18.989Z,-0.64
2016-01-24T03:44:19.121Z,-0.62
2016-01-24T03:45:18.983Z,-0.7
2016-01-24T03:46:18.986Z,-0.68
2016-01-24T03:47:18.974Z,-0.74
2016-01-24T03:48:18.962Z,-0.72
2016-01-24T03:49:18.950Z,-0.74
2016-01-24T03:50:18.968Z,-0.71
2016-01-24T03:51:18.940Z,-0.68
2016-01-24T03:52:18.943Z,-0.71
2016-01-24T03:53:18.988Z,-0.7
2016-01-24T03:54:18.915Z,-0.72
2016-01-24T03:55:18.968Z,-0.71
2016-01-24T03:56:18.909Z,-0.72
2016-01-24T03:57:18.897Z,-0.78
2016-01-24T03:58:18.902Z,-0.74
2016-01-24T03:59:18.904Z,-0.74
2016-01-24T04:00:18.907Z,-0.85
2016-01-24T04:01:18.880Z,-0.72
2016-01-24T04:02:18.870Z,-0.75
2016-01-24T04:03:18.857Z,-0.78
2016-01-24T04:04:18.860Z,-0.77
2016-01-24T04:05:18.848Z,-0.78
2016-01-24T04:06:18.835Z,-0.75
2016-01-24T04:07:18.822Z,-0.7
2016-01-24T04:08:18.825Z,-0.82
2016-01-24T04:09:18.829Z,-0.72
2016-01-24T04:10:18.864Z,-0.71
2016-01-24T04:11:18.820Z,-0.82
2016-01-24T04:12:18.808Z,-0.78
2016-01-24T04:13:18.795Z,-0.75
2016-01-24T04:14:18.784Z,-0.75
2016-01-24T04:15:18.801Z,-0.75
2016-01-24T04:16:18.774Z,-0.75
2016-01-24T04:17:18.777Z,-0.75
2016-01-24T04:18:18.763Z,-0.67
2016-01-24T04:19:18.766Z,-0.72
2016-01-24T04:20:18.739Z,-0.71
2016-01-24T04:21:18.735Z,-0.71
2016-01-24T04:22:18.737Z,-0.72
2016-01-24T04:23:18.726Z,-0.71
2016-01-24T04:24:18.698Z,-0.77
2016-01-24T04:25:18.795Z,-0.82
2016-01-24T04:26:18.720Z,-0.71
2016-01-24T04:27:18.534Z,-0.77
2016-01-24T04:28:18.697Z,-0.68
2016-01-24T04:29:18.683Z,-0.82
2016-01-24T04:30:18.734Z,-0.71
2016-01-24T04:31:18.673Z,-0.78
2016-01-24T04:32:18.661Z,-0.82
2016-01-24T04:33:18.648Z,-0.72
2016-01-24T04:34:18.651Z,-0.65
2016-01-24T04:35:18.671Z,-0.78
2016-01-24T04:36:18.642Z,-0.85
2016-01-24T04:37:18.660Z,-0.75
2016-01-24T04:38:18.620Z,-0.78
2016-01-24T04:39:18.610Z,-0.78
2016-01-24T04:40:18.707Z,-0.83
2016-01-24T04:41:18.600Z,-0.8
2016-01-24T04:42:18.588Z,-0.82
2016-01-24T04:43:18.422Z,-0.7
2016-01-24T04:44:18.581Z,-0.72
2016-01-24T04:45:18.617Z,-0.78
2016-01-24T04:46:18.588Z,-0.75
2016-01-24T04:47:18.560Z,-0.72
2016-01-24T04:48:18.548Z,-0.71
2016-01-24T04:49:18.552Z,-0.75
2016-01-24T04:50:18.607Z,-0.72
2016-01-24T04:51:18.532Z,-0.71
2016-01-24T04:52:18.536Z,-0.78
2016-01-24T04:53:18.509Z,-0.77
2016-01-24T04:54:18.511Z,-0.71
2016-01-24T04:55:18.576Z,-0.77
2016-01-24T04:56:18.523Z,-0.77
2016-01-24T04:57:18.361Z,-0.78
2016-01-24T04:58:18.699Z,-0.71
2016-01-24T04:59:18.543Z,-0.72
2016-01-24T05:00:18.484Z,-0.71
2016-01-24T05:01:18.470Z,-0.77
2016-01-24T05:02:18.458Z,-0.75
2016-01-24T05:03:18.461Z,-0.8
2016-01-24T05:04:18.354Z,-0.83
2016-01-24T05:05:18.435Z,-0.75
2016-01-24T05:06:18.454Z,-0.8
2016-01-24T05:07:18.441Z,-0.83
2016-01-24T05:08:18.414Z,-0.72
2016-01-24T05:09:18.433Z,-0.74
2016-01-24T05:10:18.514Z,-0.82
2016-01-24T05:11:18.408Z,-0.82
2016-01-24T05:12:18.411Z,-0.77
2016-01-24T05:13:18.431Z,-0.74
2016-01-24T05:14:18.386Z,-0.65
2016-01-24T05:15:18.406Z,-0.75
2016-01-24T05:16:18.363Z,-0.74
2016-01-24T05:17:18.352Z,-0.7
2016-01-24T05:18:18.371Z,-0.67
2016-01-24T05:19:18.355Z,-0.68
2016-01-24T05:20:18.343Z,-0.65
2016-01-24T05:21:18.332Z,-0.71
2016-01-24T05:22:18.335Z,-0.71
2016-01-24T05:23:18.337Z,-0.77
2016-01-24T05:24:18.324Z,-0.7
2016-01-24T05:25:18.391Z,-0.7
2016-01-24T05:26:18.377Z,-0.65
2016-01-24T05:27:18.288Z,-0.68
2016-01-24T05:28:18.306Z,-0.67
2016-01-24T05:29:18.279Z,-0.64
2016-01-24T05:30:18.656Z,-0.65
2016-01-24T05:31:18.253Z,-0.64
2016-01-24T05:32:18.349Z,-0.71
2016-01-24T05:33:18.259Z,-0.59
2016-01-24T05:34:18.246Z,-0.62
2016-01-24T05:35:18.265Z,-0.64
2016-01-24T05:36:18.253Z,-0.68
2016-01-24T05:37:18.224Z,-0.7
2016-01-24T05:38:18.259Z,-0.7
2016-01-24T05:39:18.216Z,-0.7
2016-01-24T05:40:18.252Z,-0.65
2016-01-24T05:41:18.192Z,-0.64
2016-01-24T05:42:18.195Z,-0.62
2016-01-24T05:43:18.213Z,-0.68
2016-01-24T05:44:18.186Z,-0.62
2016-01-24T05:45:18.254Z,-0.65
2016-01-24T05:46:18.179Z,-0.65
2016-01-24T05:47:18.134Z,-0.67
2016-01-24T05:48:18.172Z,-0.68
2016-01-24T05:49:18.145Z,-0.67
2016-01-24T05:50:18.211Z,-0.62
2016-01-24T05:51:18.150Z,-0.7
2016-01-24T05:52:18.138Z,-0.67
2016-01-24T05:53:18.110Z,-0.61
2016-01-24T05:54:18.099Z,-0.64
2016-01-24T05:55:18.133Z,-0.62
2016-01-24T05:56:18.104Z,-0.57
2016-01-24T05:57:18.403Z,-0.53
2016-01-24T05:58:18.110Z,-0.54
2016-01-24T05:59:18.081Z,-0.49
2016-01-24T06:00:18.117Z,-0.56
2016-01-24T06:01:18.073Z,-0.49
2016-01-24T06:02:18.059Z,-0.52
2016-01-24T06:03:18.063Z,-0.49
2016-01-24T06:04:18.066Z,-0.43
2016-01-24T06:05:18.099Z,-0.41
2016-01-24T06:06:18.024Z,-0.53
2016-01-24T06:07:18.031Z,-0.47
2016-01-24T06:08:18.005Z,-0.54
2016-01-24T06:09:18.023Z,-0.44
2016-01-24T06:10:18.057Z,-0.47
2016-01-24T06:11:18.012Z,-0.49
2016-01-24T06:12:17.999Z,-0.46
2016-01-24T06:13:17.987Z,-0.38
2016-01-24T06:14:17.975Z,-0.38
2016-01-24T06:15:17.992Z,-0.56
2016-01-24T06:16:17.964Z,-0.39
2016-01-24T06:17:17.968Z,-0.39
2016-01-24T06:18:17.957Z,-0.43
2016-01-24T06:19:17.960Z,-0.46
2016-01-24T06:20:18.010Z,-0.57
2016-01-24T06:21:17.936Z,-0.57
2016-01-24T06:22:17.924Z,-0.53
2016-01-24T06:23:17.974Z,-0.52
2016-01-24T06:24:17.898Z,-0.56
2016-01-24T06:25:17.948Z,-0.57
2016-01-24T06:26:17.888Z,-0.53
2016-01-24T06:27:17.907Z,-0.44
2016-01-24T06:28:17.882Z,-0.52
2016-01-24T06:29:17.869Z,-0.49
2016-01-24T06:30:17.887Z,-0.49
2016-01-24T06:31:17.860Z,-0.5
2016-01-24T06:32:17.864Z,-0.39
2016-01-24T06:33:17.851Z,-0.47
2016-01-24T06:34:17.853Z,-0.44
2016-01-24T06:35:17.825Z,-0.38
2016-01-24T06:36:17.847Z,-0.38
2016-01-24T06:37:17.912Z,-0.36
2016-01-24T06:38:17.809Z,-0.35
2016-01-24T06:39:17.844Z,-0.36
2016-01-24T06:40:17.877Z,-0.35
2016-01-24T06:41:17.803Z,-0.36
2016-01-24T06:42:17.775Z,-0.31
2016-01-24T06:43:17.825Z,-0.31
2016-01-24T06:44:17.781Z,-0.34
2016-01-24T06:45:17.803Z,-0.35
2016-01-24T06:46:17.777Z,-0.23
2016-01-24T06:47:17.749Z,-0.31
2016-01-24T06:48:17.846Z,-0.35
2016-01-24T06:49:17.740Z,-0.35
2016-01-24T06:50:17.745Z,-0.39
2016-01-24T06:51:17.733Z,-0.36
2016-01-24T06:52:17.723Z,-0.32
2016-01-24T06:53:17.708Z,-0.36
2016-01-24T06:54:17.729Z,-0.34
2016-01-24T06:55:17.699Z,-0.2
2016-01-24T06:56:17.703Z,-0.21
2016-01-24T06:57:17.690Z,-0.25
2016-01-24T06:58:17.677Z,-0.28
2016-01-24T06:59:17.680Z,-0.29
2016-01-24T07:00:17.684Z,-0.21
2016-01-24T07:01:17.656Z,-0.28
2016-01-24T07:02:17.658Z,-0.28
2016-01-24T07:03:17.649Z,-0.23
2016-01-24T07:04:17.640Z,-0.28
2016-01-24T07:05:17.690Z,-0.29
2016-01-24T07:06:17.647Z,-0.28
2016-01-24T07:07:17.618Z,-0.15
2016-01-24T07:08:17.620Z,-0.26
2016-01-24T07:09:17.625Z,-0.31
2016-01-24T07:10:17.598Z,-0.31
2016-01-24T07:11:17.617Z,-0.25
2016-01-24T07:12:17.588Z,-0.21
2016-01-24T07:13:17.591Z,-0.18
2016-01-24T07:14:17.579Z,-0.28
2016-01-24T07:15:17.613Z,-0.29
2016-01-24T07:16:17.584Z,-0.28
2016-01-24T07:17:17.603Z,-0.23
2016-01-24T07:18:17.583Z,-0.26
2016-01-24T07:19:17.602Z,-0.25
2016-01-24T07:20:17.527Z,-0.26
2016-01-24T07:21:17.529Z,-0.18
2016-01-24T07:22:17.533Z,-0.17
2016-01-24T07:23:17.536Z,-0.13
2016-01-24T07:24:17.509Z,-0.1
2016-01-24T07:25:18.011Z,-0.14
2016-01-24T07:26:17.498Z,-0.13
2016-01-24T07:27:17.548Z,-0.07
2016-01-24T07:28:17.473Z,-0.08
2016-01-24T07:29:17.477Z,-0.14
2016-01-24T07:30:17.481Z,-0.07
2016-01-24T07:31:17.468Z,-0.17
2016-01-24T07:32:17.486Z,-0.06
2016-01-24T07:33:17.459Z,-0.1
2016-01-24T07:34:17.480Z,-0.07
2016-01-24T07:35:17.530Z,-0.07
2016-01-24T07:36:17.422Z,-0.06
2016-01-24T07:37:17.442Z,-0.03
2016-01-24T07:38:17.416Z,0.1
2016-01-24T07:39:17.480Z,0.11
2016-01-24T07:40:17.406Z,0.18
2016-01-24T07:41:17.392Z,0.1
2016-01-24T07:42:17.725Z,0.11
2016-01-24T07:43:17.384Z,0.15
2016-01-24T07:44:17.387Z,0.11
2016-01-24T07:45:17.375Z,0.22
2016-01-24T07:46:17.377Z,0.1
2016-01-24T07:47:17.365Z,0.12
2016-01-24T07:48:17.363Z,0.16
2016-01-24T07:49:17.350Z,0.19
2016-01-24T07:50:17.415Z,0.22
2016-01-24T07:51:17.355Z,0.12
2016-01-24T07:52:17.407Z,0.19
2016-01-24T07:53:17.346Z,0.22
2016-01-24T07:54:17.320Z,0.16
2016-01-24T07:55:17.306Z,0.15
2016-01-24T07:56:17.309Z,0.19
2016-01-24T07:57:17.298Z,0.16
2016-01-24T07:58:17.304Z,0.19
2016-01-24T07:59:17.291Z,0.16
2016-01-24T08:00:17.324Z,0.22
2016-01-24T08:01:17.299Z,0.32
2016-01-24T08:02:17.272Z,0.28
2016-01-24T08:03:17.259Z,0.29
2016-01-24T08:04:17.277Z,0.39
2016-01-24T08:05:17.264Z,0.37
2016-01-24T08:06:17.251Z,0.39
2016-01-24T08:07:17.271Z,0.41
2016-01-24T08:08:17.247Z,0.41
2016-01-24T08:09:17.233Z,0.46
2016-01-24T08:10:17.267Z,0.5
2016-01-24T08:11:17.224Z,0.44
2016-01-24T08:12:17.227Z,0.52
2016-01-24T08:13:17.294Z,0.58
2016-01-24T08:14:17.266Z,0.59
2016-01-24T08:15:17.205Z,0.59
2016-01-24T08:16:17.208Z,0.6
2016-01-24T08:17:17.181Z,0.49
2016-01-24T08:18:17.198Z,0.59
2016-01-24T08:19:17.264Z,0.55
2016-01-24T08:20:17.158Z,0.62
2016-01-24T08:21:17.177Z,0.63
2016-01-24T08:22:17.150Z,0.56
2016-01-24T08:23:17.168Z,0.6
2016-01-24T08:24:17.172Z,0.55
2016-01-24T08:25:17.160Z,0.56
2016-01-24T08:26:17.178Z,0.59
2016-01-24T08:27:17.134Z,0.59
2016-01-24T08:28:17.121Z,0.63
2016-01-24T08:29:17.233Z,0.59
2016-01-24T08:30:17.220Z,0.62
2016-01-24T08:31:17.114Z,0.56
2016-01-24T08:32:17.117Z,0.58
2016-01-24T08:33:17.105Z,0.68
2016-01-24T08:34:17.108Z,0.66
2016-01-24T08:35:17.096Z,0.63
2016-01-24T08:36:17.100Z,0.65
2016-01-24T08:37:17.086Z,0.77
2016-01-24T08:38:17.089Z,0.76
2016-01-24T08:39:17.062Z,0.76
2016-01-24T08:40:17.099Z,0.7
2016-01-24T08:41:17.070Z,0.7
2016-01-24T08:42:17.059Z,0.76
2016-01-24T08:43:17.062Z,0.7
2016-01-24T08:44:16.909Z,0.76
2016-01-24T08:45:17.101Z,0.7
2016-01-24T08:46:17.041Z,0.73
2016-01-24T08:47:17.044Z,0.73
2016-01-24T08:48:17.032Z,0.8
2016-01-24T08:49:17.021Z,0.83
2016-01-24T08:50:17.024Z,0.87
2016-01-24T08:51:17.027Z,0.83
2016-01-24T08:52:17.013Z,0.86
2016-01-24T08:53:17.079Z,0.95
2016-01-24T08:54:17.098Z,0.84
2016-01-24T08:55:16.992Z,0.96
2016-01-24T08:56:16.995Z,0.91
2016-01-24T08:57:16.982Z,0.98
2016-01-24T08:58:16.985Z,0.98
2016-01-24T08:59:16.989Z,1.05
2016-01-24T09:00:16.993Z,1.05
2016-01-24T09:01:16.996Z,1.02
2016-01-24T09:02:16.983Z,1.01
2016-01-24T09:03:16.954Z,1.08
2016-01-24T09:04:16.973Z,1.12
2016-01-24T09:05:16.946Z,1.13
2016-01-24T09:06:16.949Z,1.2
2016-01-24T09:07:16.951Z,1.24
2016-01-24T09:08:16.954Z,1.2
2016-01-24T09:09:16.942Z,1.32
2016-01-24T09:10:16.978Z,1.4
2016-01-24T09:11:16.934Z,1.32
2016-01-24T09:12:16.937Z,1.35
2016-01-24T09:13:16.924Z,1.4
2016-01-24T09:14:16.927Z,1.4
2016-01-24T09:15:17.008Z,1.35
2016-01-24T09:16:16.933Z,1.38
2016-01-24T09:17:16.907Z,1.35
2016-01-24T09:18:16.910Z,1.44
2016-01-24T09:19:16.902Z,1.37
2016-01-24T09:20:16.921Z,1.34
2016-01-24T09:21:16.876Z,1.34
2016-01-24T09:22:16.894Z,1.37
2016-01-24T09:23:16.883Z,1.26
2016-01-24T09:24:16.886Z,1.28
2016-01-24T09:25:16.938Z,1.22
2016-01-24T09:26:16.909Z,1.24
2016-01-24T09:27:16.866Z,1.34
2016-01-24T09:28:16.885Z,1.42
2016-01-24T09:29:16.950Z,1.37
2016-01-24T09:30:16.859Z,1.4
2016-01-24T09:31:16.861Z,1.3
2016-01-24T09:32:16.881Z,1.41
2016-01-24T09:33:16.854Z,1.44
2016-01-24T09:34:16.856Z,1.45
2016-01-24T09:35:16.875Z,1.53
2016-01-24T09:36:16.815Z,1.55
2016-01-24T09:37:16.806Z,1.58
2016-01-24T09:38:16.887Z,1.56
2016-01-24T09:39:16.813Z,1.63
2016-01-24T09:40:16.815Z,1.68
2016-01-24T09:41:16.817Z,1.66
2016-01-24T09:42:17.181Z,1.62
2016-01-24T09:43:16.779Z,1.59
2016-01-24T09:44:16.797Z,1.66
2016-01-24T09:45:16.768Z,1.66
2016-01-24T09:46:16.787Z,1.67
2016-01-24T09:47:16.800Z,1.74
2016-01-24T09:48:16.803Z,1.71
2016-01-24T09:49:16.869Z,1.74
2016-01-24T09:50:16.793Z,1.73
2016-01-24T09:51:16.749Z,1.77
2016-01-24T09:52:16.752Z,1.76
2016-01-24T09:53:16.787Z,1.74
2016-01-24T09:54:16.744Z,1.74
2016-01-24T09:55:16.777Z,1.8
2016-01-24T09:56:16.739Z,1.74
2016-01-24T09:57:16.742Z,1.84
2016-01-24T09:58:16.807Z,1.78
2016-01-24T09:59:16.732Z,1.85
2016-01-24T10:00:16.720Z,1.87
2016-01-24T10:01:16.738Z,1.88
2016-01-24T10:02:16.727Z,1.88
2016-01-24T10:03:16.745Z,1.91
2016-01-24T10:04:16.715Z,1.91
2016-01-24T10:05:16.780Z,2
2016-01-24T10:06:16.705Z,1.95
2016-01-24T10:07:16.710Z,2.07
2016-01-24T10:08:16.712Z,2.07
2016-01-24T10:09:16.700Z,2.02
2016-01-24T10:10:16.687Z,2.14
2016-01-24T10:11:16.673Z,2.14
2016-01-24T10:12:16.676Z,2.2
2016-01-24T10:13:16.679Z,2.22
2016-01-24T10:14:16.653Z,2.18
2016-01-24T10:15:16.672Z,2.29
2016-01-24T10:16:16.662Z,2.33
2016-01-24T10:17:16.666Z,2.33
2016-01-24T10:18:16.650Z,2.36
2016-01-24T10:19:16.653Z,2.38
2016-01-24T10:20:16.691Z,2.5
2016-01-24T10:21:16.649Z,2.6
2016-01-24T10:22:16.629Z,2.62
2016-01-24T10:23:16.605Z,2.74
2016-01-24T10:24:16.597Z,2.68
2016-01-24T10:25:16.621Z,2.69
2016-01-24T10:26:16.566Z,2.85
2016-01-24T10:27:16.566Z,2.85
2016-01-24T10:28:16.564Z,2.74
2016-01-24T10:29:16.548Z,2.71
2016-01-24T10:30:16.641Z,2.72
2016-01-24T10:31:16.577Z,2.82
2016-01-24T10:32:16.548Z,2.75
2016-01-24T10:33:16.534Z,2.72
2016-01-24T10:34:16.551Z,2.82
2016-01-24T10:35:16.523Z,2.79
2016-01-24T10:36:16.526Z,3
2016-01-24T10:37:16.512Z,2.85
2016-01-24T10:38:16.514Z,2.82
2016-01-24T10:39:16.517Z,2.87
2016-01-24T10:40:16.506Z,2.93
2016-01-24T10:41:16.539Z,2.92
2016-01-24T10:42:16.498Z,2.92
2016-01-24T10:43:16.500Z,2.86
2016-01-24T10:44:16.502Z,2.9
2016-01-24T10:45:16.488Z,2.97
2016-01-24T10:46:16.491Z,3
2016-01-24T10:47:16.495Z,3.03
2016-01-24T10:48:16.484Z,2.98
2016-01-24T10:49:16.488Z,3
2016-01-24T10:50:16.539Z,2.95
2016-01-24T10:51:16.481Z,2.97
2016-01-24T10:52:16.484Z,3
2016-01-24T10:53:16.503Z,3
2016-01-24T10:54:16.489Z,3
2016-01-24T10:55:16.463Z,2.92
2016-01-24T10:56:16.466Z,3.11
2016-01-24T10:57:16.532Z,3.04
2016-01-24T10:58:16.440Z,2.97
2016-01-24T10:59:16.430Z,3.08
2016-01-24T11:00:16.481Z,3.05
2016-01-24T11:01:16.436Z,3.18
2016-01-24T11:02:16.439Z,3.28
2016-01-24T11:03:16.427Z,3.34
2016-01-24T11:04:16.430Z,3.45
2016-01-24T11:05:16.434Z,3.6
2016-01-24T11:06:16.423Z,3.66
2016-01-24T11:07:16.409Z,3.73
2016-01-24T11:08:16.428Z,3.83
2016-01-24T11:09:16.431Z,3.78
2016-01-24T11:10:16.436Z,3.84
2016-01-24T11:11:16.453Z,3.83
2016-01-24T11:12:16.425Z,3.91
2016-01-24T11:13:16.413Z,3.95
2016-01-24T11:14:16.415Z,3.84
2016-01-24T11:15:16.528Z,3.91
2016-01-24T11:16:16.438Z,3.86
2016-01-24T11:17:16.409Z,3.92
2016-01-24T11:18:16.490Z,3.84
2016-01-24T11:19:16.408Z,3.86
2016-01-24T11:20:16.457Z,3.74
2016-01-24T11:21:16.413Z,3.84
2016-01-24T11:22:16.399Z,3.76
2016-01-24T11:23:16.406Z,3.73
2016-01-24T11:24:16.409Z,3.76
2016-01-24T11:25:16.429Z,3.65
2016-01-24T11:26:16.400Z,3.7
2016-01-24T11:27:16.403Z,3.62
2016-01-24T11:28:16.406Z,3.56
2016-01-24T11:29:16.377Z,3.58
2016-01-24T11:30:16.396Z,3.62
2016-01-24T11:31:16.370Z,3.58
2016-01-24T11:32:16.388Z,3.65
2016-01-24T11:33:16.376Z,3.6
2016-01-24T11:34:16.379Z,3.77
2016-01-24T11:35:16.397Z,3.76
2016-01-24T11:36:16.214Z,3.84
2016-01-24T11:37:16.372Z,3.84
2016-01-24T11:38:16.378Z,3.99
2016-01-24T11:39:16.381Z,3.99
2016-01-24T11:40:16.415Z,4.05
2016-01-24T11:41:16.371Z,4.12
2016-01-24T11:42:16.373Z,4.2
2016-01-24T11:43:16.361Z,4.19
2016-01-24T11:44:16.350Z,4.16
2016-01-24T11:45:16.353Z,4.13
2016-01-24T11:46:16.355Z,4.14
2016-01-24T11:47:16.358Z,4.12
2016-01-24T11:48:16.347Z,3.94
2016-01-24T11:49:16.358Z,3.77
2016-01-24T11:50:16.408Z,3.84
2016-01-24T11:51:16.363Z,3.69
2016-01-24T11:52:16.382Z,3.65
2016-01-24T11:53:16.338Z,3.69
2016-01-24T11:54:16.325Z,3.73
2016-01-24T11:55:16.422Z,3.76
2016-01-24T11:56:16.331Z,3.8
2016-01-24T11:57:16.318Z,3.87
2016-01-24T11:58:16.369Z,3.87
2016-01-24T11:59:16.356Z,3.94
2016-01-24T12:00:16.437Z,4.01
2016-01-24T12:01:16.346Z,4.04
2016-01-24T12:02:16.367Z,3.98
2016-01-24T12:03:16.354Z,4.04
2016-01-24T12:04:16.326Z,4.05
2016-01-24T12:05:16.360Z,4.1
2016-01-24T12:06:16.393Z,4.05
2016-01-24T12:07:16.315Z,4.13
2016-01-24T12:08:16.319Z,4.2
2016-01-24T12:09:16.354Z,4.23
2016-01-24T12:10:16.341Z,4.24
2016-01-24T12:11:16.313Z,4.26
2016-01-24T12:12:16.317Z,4.23
2016-01-24T12:13:16.303Z,4.24
2016-01-24T12:14:16.369Z,4.26
2016-01-24T12:15:16.404Z,4.31
2016-01-24T12:16:16.297Z,4.38
2016-01-24T12:17:16.340Z,4.38
2016-01-24T12:18:16.311Z,4.48
2016-01-24T12:19:16.283Z,4.5
2016-01-24T12:20:16.334Z,4.5
2016-01-24T12:21:16.304Z,4.49
2016-01-24T12:22:16.308Z,4.53
2016-01-24T12:23:16.298Z,4.58
2016-01-24T12:24:16.272Z,4.55
2016-01-24T12:25:16.321Z,4.55
2016-01-24T12:26:16.324Z,4.55
2016-01-24T12:27:16.280Z,4.52
2016-01-24T12:28:16.285Z,4.49
2016-01-24T12:29:16.288Z,4.4
2016-01-24T12:30:16.290Z,4.4
2016-01-24T12:31:16.279Z,4.37
2016-01-24T12:32:16.281Z,4.41
2016-01-24T12:33:16.316Z,4.48
2016-01-24T12:34:16.288Z,4.49
2016-01-24T12:35:16.290Z,4.56
2016-01-24T12:36:16.262Z,4.56
2016-01-24T12:37:16.266Z,4.6
2016-01-24T12:38:16.286Z,4.6
2016-01-24T12:39:16.258Z,4.67
2016-01-24T12:40:16.307Z,4.63
2016-01-24T12:41:16.280Z,4.63
2016-01-24T12:42:16.252Z,4.66
2016-01-24T12:43:16.255Z,4.53
2016-01-24T12:44:16.321Z,4.56
2016-01-24T12:45:16.307Z,4.6
2016-01-24T12:46:16.340Z,4.58
2016-01-24T12:47:16.251Z,4.67
2016-01-24T12:48:16.253Z,4.52
2016-01-24T12:49:16.241Z,4.49
2016-01-24T12:50:16.650Z,4.44
2016-01-24T12:51:16.249Z,4.34
2016-01-24T12:52:16.283Z,4.32
2016-01-24T12:53:16.271Z,4.3
2016-01-24T12:54:16.242Z,4.28
2016-01-24T12:55:16.245Z,4.28
2016-01-24T12:56:16.233Z,4.26
2016-01-24T12:57:16.267Z,4.31
2016-01-24T12:58:16.285Z,4.35
2016-01-24T12:59:16.229Z,4.28
2016-01-24T13:00:16.262Z,4.3
2016-01-24T13:01:16.234Z,4.38
2016-01-24T13:02:16.238Z,4.37
2016-01-24T13:03:16.226Z,4.41
2016-01-24T13:04:16.229Z,4.37
2016-01-24T13:05:16.248Z,4.38
2016-01-24T13:06:16.268Z,4.38
2016-01-24T13:07:16.226Z,4.32
2016-01-24T13:08:16.229Z,4.32
2016-01-24T13:09:16.201Z,4.38
2016-01-24T13:10:16.251Z,4.49
2016-01-24T13:11:16.207Z,4.53
2016-01-24T13:12:16.211Z,4.55
2016-01-24T13:13:16.198Z,4.58
2016-01-24T13:14:16.201Z,4.56
2016-01-24T13:15:16.236Z,4.62
2016-01-24T13:16:16.207Z,4.62
2016-01-24T13:17:16.232Z,4.59
2016-01-24T13:18:16.219Z,4.6
2016-01-24T13:19:16.237Z,4.6
2016-01-24T13:20:16.271Z,4.6
2016-01-24T13:21:16.211Z,4.67
2016-01-24T13:22:16.201Z,4.63